Time;durP1;ratioP1;P1;durP2;ratioP2;P2;SDS_P1;SDS_P2;PMS_P1;PMS_P2;Temp;Humidity;BMP_temperature;BMP_pressure;BME280_temperature;BME280_humidity;BME280_pressure;Samples;Min_cycle;Max_cycle;Signal;HPM_P1;HPM_P2
2023/01/24 00:01:23;;;;;;;56.00;35.33;;;2.90;99.90;;;;;;4971812;28;20206;-46
2023/01/24 00:03:49;;;;;;;48.40;34.20;;;2.90;99.90;;;;;;4969546;28;20797;-45
2023/01/24 00:06:14;;;;;;;53.40;35.73;;;3.00;99.90;;;;;;4969172;28;20176;-43
2023/01/24 00:08:40;;;;;;;54.43;36.67;;;2.90;99.90;;;;;;4969152;28;20191;-45
2023/01/24 00:11:08;;;;;;;50.73;34.57;;;2.90;99.90;;;;;;4972492;28;20864;-45
2023/01/24 00:13:35;;;;;;;56.05;35.75;;;2.90;99.90;;;;;;4976237;28;20196;-44
2023/01/24 00:16:05;;;;;;;53.47;35.45;;;2.90;99.90;;;;;;4975247;28;20276;-45
2023/01/24 00:18:32;;;;;;;56.50;34.22;;;2.90;99.90;;;;;;4974976;28;20188;-46
2023/01/24 00:21:18;;;;;;;56.92;35.50;;;3.00;99.90;;;;;;4965842;28;20263;-44
2023/01/24 00:23:47;;;;;;;51.00;35.40;;;2.90;99.90;;;;;;4981972;28;20198;-48
2023/01/24 00:26:13;;;;;;;56.47;35.90;;;2.90;99.90;;;;;;4964023;28;20247;-46
2023/01/24 00:28:39;;;;;;;54.60;36.05;;;3.00;99.90;;;;;;4974688;28;20193;-47
2023/01/24 00:31:05;;;;;;;52.37;33.27;;;3.00;99.90;;;;;;4975546;28;20195;-46
2023/01/24 00:33:31;;;;;;;48.97;35.33;;;3.00;99.90;;;;;;4977967;28;20524;-44
2023/01/24 00:35:57;;;;;;;53.78;35.38;;;3.00;99.90;;;;;;4974726;28;20816;-45
2023/01/24 00:38:23;;;;;;;56.00;35.83;;;3.00;99.90;;;;;;4963732;28;20238;-44
2023/01/24 00:40:49;;;;;;;53.20;35.70;;;3.00;99.90;;;;;;4976445;28;20234;-43
2023/01/24 00:43:15;;;;;;;51.40;34.70;;;3.00;99.90;;;;;;4974216;28;20745;-48
2023/01/24 00:45:40;;;;;;;57.70;36.87;;;2.90;99.90;;;;;;4971227;28;20274;-44
2023/01/24 00:48:08;;;;;;;54.50;38.53;;;2.90;99.90;;;;;;4982385;28;20187;-45
2023/01/24 00:50:34;;;;;;;52.78;37.05;;;2.90;99.90;;;;;;4967776;28;20194;-44
2023/01/24 00:53:00;;;;;;;52.10;35.60;;;3.00;99.90;;;;;;4980351;28;20198;-47
2023/01/24 00:55:25;;;;;;;60.00;36.00;;;3.00;99.90;;;;;;4976540;28;20235;-44
2023/01/24 00:57:51;;;;;;;52.20;35.37;;;3.00;99.90;;;;;;4971524;28;20902;-43
2023/01/24 01:00:17;;;;;;;49.50;35.57;;;3.00;99.90;;;;;;4973103;28;20201;-42
2023/01/24 01:02:43;;;;;;;54.28;36.92;;;3.00;99.90;;;;;;4978241;28;20234;-43
2023/01/24 01:05:09;;;;;;;49.27;34.40;;;3.00;99.90;;;;;;4975634;28;20199;-50
2023/01/24 01:07:35;;;;;;;49.70;34.57;;;3.10;99.90;;;;;;4978708;28;20210;-46
2023/01/24 01:10:01;;;;;;;49.60;34.92;;;3.00;99.90;;;;;;4976399;28;20183;-44
2023/01/24 01:12:27;;;;;;;57.85;35.97;;;3.10;99.90;;;;;;4976295;28;20278;-44
2023/01/24 01:14:52;;;;;;;52.20;34.87;;;3.00;99.90;;;;;;4973623;28;20674;-44
2023/01/24 01:17:18;;;;;;;50.43;34.43;;;3.00;99.90;;;;;;4979651;28;20187;-49
2023/01/24 01:19:44;;;;;;;54.67;36.57;;;3.00;99.90;;;;;;4969693;28;20619;-48
2023/01/24 01:22:10;;;;;;;50.37;34.37;;;3.10;99.90;;;;;;4963344;28;20945;-49
2023/01/24 01:24:35;;;;;;;51.63;35.45;;;3.00;99.90;;;;;;4968491;28;20218;-44
2023/01/24 01:27:01;;;;;;;50.50;34.77;;;3.00;99.90;;;;;;4973253;28;20685;-47
2023/01/24 01:29:27;;;;;;;46.77;33.63;;;3.00;99.90;;;;;;4963845;28;20192;-43
2023/01/24 01:31:52;;;;;;;47.50;33.30;;;3.00;99.90;;;;;;4966824;28;20243;-45
2023/01/24 01:34:18;;;;;;;51.43;36.33;;;3.10;99.90;;;;;;4978064;28;20568;-45
2023/01/24 01:36:44;;;;;;;48.97;34.77;;;3.00;99.90;;;;;;4978720;28;20503;-44
2023/01/24 01:39:10;;;;;;;53.43;35.03;;;3.10;99.90;;;;;;4965696;28;20191;-45
2023/01/24 01:41:35;;;;;;;49.10;35.40;;;3.00;99.90;;;;;;4973653;28;20472;-49
2023/01/24 01:47:34;;;;;;;49.33;35.75;;;3.10;99.90;;;;;;4976057;28;20971;-43
2023/01/24 01:50:14;;;;;;;50.95;34.40;;;3.10;99.90;;;;;;4963608;28;20471;-45
2023/01/24 01:52:42;;;;;;;53.10;35.83;;;3.10;99.90;;;;;;4971445;28;20187;-45
2023/01/24 01:55:20;;;;;;;49.75;35.38;;;3.10;99.90;;;;;;4972501;28;20513;-45
2023/01/24 01:57:48;;;;;;;52.45;37.55;;;3.10;99.90;;;;;;4969564;28;20537;-49
2023/01/24 02:00:18;;;;;;;53.25;35.75;;;3.10;99.90;;;;;;4973627;28;20211;-46
2023/01/24 02:02:50;;;;;;;58.40;38.90;;;3.00;99.90;;;;;;4975098;28;20657;-46
2023/01/24 02:05:20;;;;;;;52.17;35.95;;;3.10;99.90;;;;;;4962013;28;20200;-44
2023/01/24 02:07:53;;;;;;;52.38;36.22;;;3.10;99.90;;;;;;4966305;28;20200;-44
2023/01/24 02:10:22;;;;;;;54.40;36.38;;;3.10;99.90;;;;;;4968337;28;20198;-48
2023/01/24 02:12:51;;;;;;;52.90;36.22;;;3.10;99.90;;;;;;4966811;28;20199;-46
2023/01/24 02:18:06;;;;;;;45.53;34.45;;;3.10;99.90;;;;;;4972641;28;20198;-46
2023/01/24 02:20:45;;;;;;;49.25;34.53;;;3.00;99.90;;;;;;4972557;28;20195;-45
2023/01/24 02:23:25;;;;;;;46.30;34.53;;;3.00;99.90;;;;;;4974579;28;20689;-43
2023/01/24 02:26:28;;;;;;;44.00;32.30;;;3.00;99.90;;;;;;4968414;28;20192;-45
2023/01/24 02:29:10;;;;;;;49.25;34.22;;;3.00;99.90;;;;;;4955022;28;20199;-46
2023/01/24 02:31:58;;;;;;;51.20;34.60;;;3.00;99.90;;;;;;4972517;28;20529;-46
2023/01/24 02:34:25;;;;;;;43.97;32.42;;;3.00;99.90;;;;;;4969531;28;20203;-47
2023/01/24 02:36:59;;;;;;;51.72;34.58;;;3.00;99.90;;;;;;4969129;28;20180;-45
2023/01/24 02:39:32;;;;;;;47.83;34.80;;;3.00;99.90;;;;;;4964853;28;20189;-46
2023/01/24 02:42:04;;;;;;;49.92;35.25;;;3.00;99.90;;;;;;4963788;28;20239;-45
2023/01/24 02:44:51;;;;;;;54.95;36.25;;;3.00;99.90;;;;;;4965758;28;20227;-45
2023/01/24 02:47:16;;;;;;;49.67;36.03;;;3.00;99.90;;;;;;4970911;28;20188;-44
2023/01/24 02:49:42;;;;;;;52.57;36.63;;;3.00;99.90;;;;;;4963604;28;20196;-45
2023/01/24 02:54:52;;;;;;;52.30;34.97;;;3.00;99.90;;;;;;4966134;28;20230;-45
2023/01/24 03:00:07;;;;;;;52.42;35.75;;;3.00;99.90;;;;;;4961942;28;20224;-46
2023/01/24 03:02:33;;;;;;;56.33;36.80;;;3.00;99.90;;;;;;4962198;28;20263;-44
2023/01/24 03:04:58;;;;;;;53.17;37.20;;;3.00;99.90;;;;;;4973796;28;20192;-43
2023/01/24 03:07:24;;;;;;;54.03;36.47;;;3.00;99.90;;;;;;4979868;28;20477;-46
2023/01/24 03:09:50;;;;;;;50.93;36.60;;;2.90;99.90;;;;;;4974194;28;20206;-45
2023/01/24 03:36:56;;;;;;;50.00;34.42;;;2.90;99.90;;;;;;4974530;28;20191;-42
2023/01/24 03:42:07;;;;;;;51.17;36.38;;;3.00;99.90;;;;;;4977569;28;20488;-45
2023/01/24 03:44:32;;;;;;;47.97;34.57;;;2.90;99.90;;;;;;4973432;28;20199;-43
2023/01/24 03:46:58;;;;;;;54.33;36.93;;;2.90;99.90;;;;;;4965052;28;20206;-43
2023/01/24 03:54:52;;;;;;;56.58;35.72;;;3.00;99.90;;;;;;4972982;28;20316;-43
2023/01/24 03:57:17;;;;;;;54.20;36.17;;;2.90;99.90;;;;;;4963603;28;20605;-43
2023/01/24 03:59:43;;;;;;;50.20;33.80;;;2.90;99.90;;;;;;4969680;28;20198;-44
2023/01/24 04:02:09;;;;;;;52.47;34.33;;;2.90;99.90;;;;;;4968932;28;20305;-44
2023/01/24 04:07:19;;;;;;;47.88;33.55;;;2.80;99.90;;;;;;4976477;28;20717;-44
2023/01/24 04:09:45;;;;;;;51.55;34.53;;;2.80;99.90;;;;;;4968471;28;20621;-44
2023/01/24 04:12:10;;;;;;;52.40;34.27;;;2.80;99.90;;;;;;4977084;28;20269;-44
2023/01/24 04:14:36;;;;;;;52.93;34.93;;;2.70;99.90;;;;;;4975835;28;20216;-45
2023/01/24 04:17:01;;;;;;;56.50;36.00;;;2.70;99.90;;;;;;4964854;28;20219;-44
2023/01/24 04:19:27;;;;;;;49.27;33.67;;;2.70;99.90;;;;;;4960595;28;20687;-42
2023/01/24 04:21:53;;;;;;;54.27;33.83;;;2.70;99.90;;;;;;4968103;28;20202;-45
2023/01/24 04:24:18;;;;;;;50.30;34.87;;;2.70;99.90;;;;;;4952255;28;20269;-44
2023/01/24 04:26:44;;;;;;;49.90;34.20;;;2.60;99.90;;;;;;4971687;28;20441;-47
2023/01/24 04:29:10;;;;;;;55.93;34.80;;;2.50;99.90;;;;;;4966458;28;20716;-47
2023/01/24 04:31:35;;;;;;;54.27;35.27;;;2.50;99.90;;;;;;4968807;28;20199;-44
2023/01/24 04:34:01;;;;;;;50.83;32.77;;;2.50;99.90;;;;;;4970216;28;20247;-44
2023/01/24 04:36:26;;;;;;;48.43;33.90;;;2.50;99.90;;;;;;4967477;28;20194;-47
2023/01/24 04:38:52;;;;;;;52.90;34.43;;;2.60;99.90;;;;;;4981679;28;20215;-45
2023/01/24 04:41:17;;;;;;;60.13;35.10;;;2.50;99.90;;;;;;4965771;28;20338;-43
2023/01/24 04:43:43;;;;;;;50.83;32.93;;;2.60;99.90;;;;;;4979323;28;20188;-45
2023/01/24 04:46:09;;;;;;;52.13;32.40;;;2.60;99.90;;;;;;4965005;28;20257;-45
2023/01/24 04:48:34;;;;;;;53.30;35.57;;;2.60;99.90;;;;;;4965426;28;20665;-43
2023/01/24 04:51:00;;;;;;;54.93;32.87;;;2.60;99.90;;;;;;4975773;28;20288;-49
2023/01/24 04:53:28;;;;;;;48.50;33.35;;;2.50;99.90;;;;;;4968403;28;20214;-46
2023/01/24 04:55:54;;;;;;;52.15;33.50;;;2.60;99.90;;;;;;4972041;28;20210;-43
2023/01/24 04:58:20;;;;;;;49.50;32.57;;;2.60;99.90;;;;;;4978406;28;20209;-43
2023/01/24 05:00:47;;;;;;;49.90;33.80;;;2.60;99.90;;;;;;4964185;28;20564;-44
2023/01/24 05:03:13;;;;;;;52.50;32.83;;;2.60;99.90;;;;;;4969343;28;20470;-45
2023/01/24 05:05:38;;;;;;;47.67;33.10;;;2.60;99.90;;;;;;4968977;28;20197;-42
2023/01/24 05:08:04;;;;;;;56.23;33.30;;;2.60;99.90;;;;;;4969919;28;20654;-44
2023/01/24 05:10:30;;;;;;;52.60;34.47;;;2.60;99.90;;;;;;4967676;28;20263;-48
2023/01/24 05:12:55;;;;;;;50.50;31.63;;;2.60;99.90;;;;;;4969777;28;20213;-44
2023/01/24 05:15:22;;;;;;;52.57;33.47;;;2.60;99.90;;;;;;4963965;28;20230;-45
2023/01/24 05:17:48;;;;;;;51.15;31.40;;;2.70;99.90;;;;;;4969284;28;20188;-43
2023/01/24 05:20:13;;;;;;;52.50;31.93;;;2.70;99.90;;;;;;4967352;28;20789;-44
2023/01/24 05:22:39;;;;;;;47.50;31.70;;;2.70;99.90;;;;;;4973743;28;20267;-44
2023/01/24 05:25:05;;;;;;;48.70;30.90;;;2.70;99.90;;;;;;4971675;28;20662;-44
2023/01/24 05:27:31;;;;;;;47.17;32.80;;;2.70;99.90;;;;;;4973670;28;20666;-46
2023/01/24 05:29:56;;;;;;;49.70;31.47;;;2.70;99.90;;;;;;4980469;28;20206;-45
2023/01/24 05:32:22;;;;;;;48.40;31.80;;;2.70;99.90;;;;;;4977742;28;20224;-44
2023/01/24 05:34:47;;;;;;;46.60;31.23;;;2.70;99.90;;;;;;4963901;28;20242;-46
2023/01/24 05:37:13;;;;;;;49.47;32.10;;;2.70;99.90;;;;;;4966532;28;20203;-45
2023/01/24 05:39:38;;;;;;;51.47;32.10;;;2.70;99.90;;;;;;4980838;28;20553;-46
2023/01/24 05:42:04;;;;;;;47.70;30.20;;;2.70;99.90;;;;;;4980943;28;20289;-44
2023/01/24 05:44:30;;;;;;;44.07;31.67;;;2.70;99.90;;;;;;4974876;28;20183;-46
2023/01/24 05:46:55;;;;;;;47.80;32.87;;;2.60;99.90;;;;;;4966022;28;20196;-43
2023/01/24 05:49:21;;;;;;;52.17;32.70;;;2.70;99.90;;;;;;4980805;28;20207;-43
2023/01/24 05:51:46;;;;;;;49.50;33.70;;;2.70;99.90;;;;;;4981711;28;20229;-46
2023/01/24 05:54:12;;;;;;;43.60;30.90;;;2.70;99.90;;;;;;4980958;28;20306;-46
2023/01/24 05:56:38;;;;;;;46.10;29.87;;;2.70;99.90;;;;;;4979540;28;20273;-44
2023/01/24 05:59:03;;;;;;;45.23;30.97;;;2.70;99.90;;;;;;4973793;28;20188;-46
2023/01/24 06:01:29;;;;;;;48.87;31.70;;;2.70;99.90;;;;;;4969679;28;20195;-45
2023/01/24 06:03:55;;;;;;;47.33;30.73;;;2.70;99.90;;;;;;4975840;28;20578;-44
2023/01/24 06:06:22;;;;;;;47.03;30.33;;;2.70;99.90;;;;;;4970049;28;20179;-44
2023/01/24 06:08:48;;;;;;;47.05;31.90;;;2.70;99.90;;;;;;4980849;28;20245;-45
2023/01/24 06:11:16;;;;;;;50.00;31.50;;;2.70;99.90;;;;;;4980571;28;20190;-46
2023/01/24 06:13:42;;;;;;;48.88;32.50;;;2.70;99.90;;;;;;4980528;28;20426;-47
2023/01/24 06:16:14;;;;;;;46.55;31.85;;;2.60;99.90;;;;;;4972208;28;20232;-47
2023/01/24 06:18:40;;;;;;;47.90;31.17;;;2.60;99.90;;;;;;4976952;28;20195;-46
2023/01/24 06:21:15;;;;;;;47.40;30.80;;;2.60;99.90;;;;;;4980727;28;20454;-44
2023/01/24 06:23:41;;;;;;;43.40;30.10;;;2.70;99.90;;;;;;4979525;28;20411;-44
2023/01/24 06:26:09;;;;;;;44.90;30.07;;;2.60;99.90;;;;;;4980468;28;20263;-46
2023/01/24 06:28:35;;;;;;;46.30;30.77;;;2.60;99.90;;;;;;4969263;28;20187;-44
2023/01/24 06:31:33;;;;;;;41.37;30.60;;;2.60;99.90;;;;;;4978803;28;20202;-45
2023/01/24 06:34:21;;;;;;;48.83;30.70;;;2.60;99.90;;;;;;4980254;28;20428;-49
2023/01/24 06:37:01;;;;;;;46.55;32.10;;;2.60;99.90;;;;;;4973581;28;20192;-44
2023/01/24 06:39:27;;;;;;;47.60;31.98;;;2.60;99.90;;;;;;4974161;28;20195;-47
2023/01/24 06:41:53;;;;;;;45.15;31.30;;;2.60;99.90;;;;;;4980392;28;20245;-43
2023/01/24 06:44:19;;;;;;;43.25;30.98;;;2.50;99.90;;;;;;4980556;28;20269;-45
2023/01/24 06:46:44;;;;;;;47.80;31.60;;;2.60;99.90;;;;;;4980072;28;20195;-43
2023/01/24 06:49:11;;;;;;;41.60;30.60;;;2.60;99.90;;;;;;4972469;28;20904;-48
2023/01/24 06:51:37;;;;;;;49.45;34.28;;;2.60;99.90;;;;;;4980532;28;20191;-46
2023/01/24 06:54:02;;;;;;;43.87;31.83;;;2.60;99.90;;;;;;4980020;28;20199;-44
2023/01/24 06:56:28;;;;;;;43.37;30.70;;;2.60;99.90;;;;;;4980121;28;20668;-43
2023/01/24 06:58:53;;;;;;;45.80;32.07;;;2.60;99.90;;;;;;4976336;28;20182;-44
2023/01/24 07:01:19;;;;;;;50.57;32.60;;;2.60;99.90;;;;;;4980119;28;20208;-45
2023/01/24 07:03:45;;;;;;;43.83;30.77;;;2.70;99.90;;;;;;4977771;28;20187;-45
2023/01/24 07:06:10;;;;;;;40.37;31.53;;;2.70;99.90;;;;;;4961975;28;20184;-45
2023/01/24 07:08:36;;;;;;;46.43;31.60;;;2.70;99.90;;;;;;4974404;28;20680;-46
2023/01/24 07:11:02;;;;;;;45.73;31.03;;;2.70;99.90;;;;;;4979765;28;20191;-44
2023/01/24 07:13:27;;;;;;;44.37;30.23;;;2.70;99.90;;;;;;4979792;28;20190;-47
2023/01/24 07:15:53;;;;;;;47.37;31.33;;;2.60;99.90;;;;;;4972319;28;20261;-47
2023/01/24 07:18:19;;;;;;;44.60;30.83;;;2.60;99.90;;;;;;4978277;28;20234;-46
2023/01/24 07:20:45;;;;;;;38.42;30.45;;;2.70;99.90;;;;;;4979927;28;20191;-45
2023/01/24 07:23:31;;;;;;;47.15;32.22;;;2.70;99.90;;;;;;4979662;28;20498;-45
2023/01/24 07:25:56;;;;;;;47.00;31.20;;;2.80;99.90;;;;;;4976404;28;20641;-43
2023/01/24 07:28:22;;;;;;;44.67;30.90;;;2.70;99.90;;;;;;4967789;28;20179;-51
2023/01/24 07:30:49;;;;;;;42.23;30.73;;;2.70;99.90;;;;;;4979544;28;21072;-46
2023/01/24 07:33:15;;;;;;;43.75;31.70;;;2.80;99.90;;;;;;4976010;28;20550;-43
2023/01/24 07:35:42;;;;;;;44.88;32.53;;;2.80;99.90;;;;;;4968504;28;20215;-45
2023/01/24 07:38:08;;;;;;;47.13;33.38;;;2.80;99.90;;;;;;4971671;28;20552;-45
2023/01/24 07:40:33;;;;;;;46.22;30.95;;;2.80;99.90;;;;;;4976837;28;20645;-46
2023/01/24 07:43:00;;;;;;;45.60;32.30;;;2.80;99.90;;;;;;4979347;28;20344;-45
2023/01/24 07:45:26;;;;;;;40.08;30.02;;;2.80;99.90;;;;;;4979854;28;20183;-44
2023/01/24 07:47:57;;;;;;;47.83;32.50;;;2.80;99.90;;;;;;4973473;28;20666;-44
2023/01/24 07:50:24;;;;;;;48.20;33.33;;;2.90;99.90;;;;;;4978184;28;20187;-46
2023/01/24 07:52:51;;;;;;;45.40;33.58;;;2.80;99.90;;;;;;4979359;28;20241;-47
2023/01/24 07:55:17;;;;;;;42.63;31.50;;;2.90;99.90;;;;;;4979412;28;20452;-45
2023/01/24 07:57:43;;;;;;;44.58;31.88;;;2.90;99.90;;;;;;4979614;28;20180;-44
2023/01/24 08:00:11;;;;;;;42.50;31.87;;;2.90;99.90;;;;;;4966993;28;20205;-47
2023/01/24 08:02:36;;;;;;;48.75;33.53;;;2.90;99.90;;;;;;4983078;28;20721;-47
2023/01/24 08:05:02;;;;;;;44.83;31.33;;;3.00;99.90;;;;;;4982897;28;20191;-47
2023/01/24 08:07:28;;;;;;;41.13;29.97;;;3.00;99.90;;;;;;4983152;28;20265;-45
2023/01/24 08:09:53;;;;;;;43.27;31.37;;;3.00;99.90;;;;;;4983646;28;20214;-45
2023/01/24 08:12:20;;;;;;;45.37;32.53;;;3.00;99.90;;;;;;4962433;28;20196;-43
2023/01/24 08:14:45;;;;;;;41.58;31.70;;;3.00;99.90;;;;;;4974062;28;20212;-46
2023/01/24 08:17:11;;;;;;;45.80;32.50;;;3.00;99.90;;;;;;4983177;28;20266;-48
2023/01/24 08:19:38;;;;;;;43.57;31.70;;;3.10;99.90;;;;;;4979456;28;20267;-47
2023/01/24 08:22:03;;;;;;;44.95;30.05;;;3.00;99.90;;;;;;4976514;28;20191;-46
2023/01/24 08:24:29;;;;;;;43.67;31.93;;;3.10;99.90;;;;;;4981484;28;20638;-45
2023/01/24 08:26:55;;;;;;;44.57;31.50;;;3.00;99.90;;;;;;4982085;28;20445;-48
2023/01/24 08:29:20;;;;;;;44.20;31.03;;;3.00;99.90;;;;;;4970490;28;20673;-47
2023/01/24 08:31:48;;;;;;;42.67;30.63;;;3.00;99.90;;;;;;4982674;28;20192;-44
2023/01/24 08:34:14;;;;;;;40.75;31.25;;;3.00;99.90;;;;;;4972358;28;20203;-43
2023/01/24 08:36:39;;;;;;;50.20;34.03;;;3.10;99.90;;;;;;4965446;28;20199;-44
2023/01/24 08:39:05;;;;;;;44.13;30.30;;;3.00;99.90;;;;;;4982618;28;20486;-45
2023/01/24 08:41:31;;;;;;;47.83;31.43;;;3.10;99.90;;;;;;4976157;28;20671;-46
2023/01/24 08:43:56;;;;;;;45.40;30.97;;;3.10;99.90;;;;;;4982523;28;20218;-46
2023/01/24 08:46:22;;;;;;;42.90;30.47;;;3.10;99.90;;;;;;4983062;28;20184;-45
2023/01/24 08:48:48;;;;;;;48.60;32.50;;;3.10;99.90;;;;;;4975147;28;20239;-46
2023/01/24 08:51:13;;;;;;;45.30;32.00;;;3.10;99.90;;;;;;4982433;28;20610;-48
2023/01/24 08:53:39;;;;;;;44.90;29.10;;;3.20;99.90;;;;;;4965083;28;20499;-47
2023/01/24 08:56:06;;;;;;;44.00;30.13;;;3.20;99.90;;;;;;4982082;28;20200;-45
2023/01/24 08:58:33;;;;;;;42.70;29.20;;;3.10;99.90;;;;;;4965076;28;20378;-46
2023/01/24 09:00:59;;;;;;;42.72;30.48;;;3.10;99.90;;;;;;4982521;28;20234;-45
2023/01/24 09:03:26;;;;;;;43.08;31.83;;;3.10;99.90;;;;;;4969985;28;20186;-43
2023/01/24 09:05:57;;;;;;;45.60;31.63;;;3.10;99.90;;;;;;4982200;28;20188;-45
2023/01/24 09:08:23;;;;;;;42.97;30.90;;;3.10;99.90;;;;;;4981673;28;20195;-46
2023/01/24 09:10:48;;;;;;;43.40;31.77;;;3.20;99.90;;;;;;4982275;28;20200;-47
2023/01/24 09:13:14;;;;;;;47.27;33.67;;;3.20;99.90;;;;;;4979732;28;20427;-46
2023/01/24 09:15:40;;;;;;;44.63;32.50;;;3.30;99.90;;;;;;4981972;28;20233;-46
2023/01/24 09:18:05;;;;;;;44.70;31.27;;;3.30;99.90;;;;;;4982267;28;20564;-45
2023/01/24 09:20:31;;;;;;;41.70;29.80;;;3.30;99.90;;;;;;4972397;28;20196;-46
2023/01/24 09:22:56;;;;;;;47.53;30.70;;;3.40;99.90;;;;;;4982347;28;20539;-45
2023/01/24 09:25:22;;;;;;;45.40;32.87;;;3.40;99.90;;;;;;4972845;28;20932;-45
2023/01/24 09:27:55;;;;;;;41.13;30.83;;;3.40;99.90;;;;;;4964015;28;20187;-46
2023/01/24 09:30:22;;;;;;;45.42;30.40;;;3.50;99.90;;;;;;4975326;28;20426;-47
2023/01/24 09:32:48;;;;;;;42.78;31.13;;;3.50;99.90;;;;;;4981964;28;20290;-44
2023/01/24 09:35:14;;;;;;;48.78;33.22;;;3.50;99.90;;;;;;4981272;28;20693;-45
2023/01/24 09:37:42;;;;;;;42.17;31.03;;;3.50;99.90;;;;;;4973867;28;20219;-43
2023/01/24 09:40:28;;;;;;;43.80;32.45;;;3.50;99.90;;;;;;4981718;28;20465;-46
2023/01/24 09:43:03;;;;;;;45.25;31.60;;;3.60;99.90;;;;;;4981565;28;20241;-46
2023/01/24 09:45:55;;;;;;;47.72;35.45;;;3.60;99.90;;;;;;4971288;28;20197;-44
2023/01/24 09:48:22;;;;;;;46.90;31.50;;;3.60;99.90;;;;;;4972896;28;20195;-43
2023/01/24 09:50:52;;;;;;;46.70;32.03;;;3.60;99.90;;;;;;4980126;28;20190;-44
2023/01/24 09:53:42;;;;;;;44.55;31.10;;;3.60;99.90;;;;;;4979795;28;20189;-46
2023/01/24 09:56:22;;;;;;;47.20;33.15;;;3.60;99.90;;;;;;4963508;28;20239;-45
2023/01/24 09:59:10;;;;;;;44.33;33.03;;;3.60;99.90;;;;;;4961122;28;20190;-49
2023/01/24 10:01:38;;;;;;;42.75;30.25;;;3.60;99.90;;;;;;4977534;28;20626;-45
2023/01/24 10:04:13;;;;;;;45.38;31.95;;;3.60;99.90;;;;;;4981024;28;20213;-47
2023/01/24 10:06:39;;;;;;;45.88;32.08;;;3.70;99.90;;;;;;4970418;28;20184;-47
2023/01/24 10:09:18;;;;;;;41.45;31.20;;;3.70;99.90;;;;;;4980983;28;20249;-47
2023/01/24 10:12:05;;;;;;;46.13;31.88;;;3.70;99.90;;;;;;4981341;28;20191;-50
2023/01/24 10:14:40;;;;;;;43.72;31.65;;;3.70;99.90;;;;;;4980103;28;20209;-44
2023/01/24 10:17:11;;;;;;;42.63;31.20;;;3.60;99.90;;;;;;4980835;28;20424;-44
2023/01/24 10:19:51;;;;;;;43.45;30.80;;;3.60;99.90;;;;;;4980695;28;20298;-46
2023/01/24 10:22:35;;;;;;;54.40;34.70;;;3.60;99.90;;;;;;4980651;28;20222;-43
2023/01/24 10:25:12;;;;;;;41.42;31.70;;;3.60;99.90;;;;;;4977019;28;20221;-45
2023/01/24 10:27:45;;;;;;;42.88;31.48;;;3.60;99.90;;;;;;4976364;28;20228;-50
2023/01/24 10:30:40;;;;;;;44.72;32.22;;;3.60;99.90;;;;;;4973386;28;20475;-46
2023/01/24 10:33:15;;;;;;;47.97;32.35;;;3.60;99.90;;;;;;4978534;28;20294;-47
2023/01/24 10:36:05;;;;;;;53.63;34.50;;;3.60;99.90;;;;;;4980275;28;20287;-45
2023/01/24 10:38:32;;;;;;;47.90;33.03;;;3.50;99.90;;;;;;4966799;28;20665;-45
2023/01/24 10:41:15;;;;;;;50.15;33.60;;;3.50;99.90;;;;;;4967774;28;20246;-45
2023/01/24 10:43:43;;;;;;;43.20;30.77;;;3.50;99.90;;;;;;4980615;28;20184;-45
2023/01/24 10:46:34;;;;;;;51.90;33.45;;;3.60;99.90;;;;;;4980836;28;20182;-46
2023/01/24 10:49:01;;;;;;;46.50;32.53;;;3.60;99.90;;;;;;4980130;28;20219;-50
2023/01/24 10:51:27;;;;;;;48.28;32.88;;;3.60;99.90;;;;;;4979985;28;20206;-44
2023/01/24 10:54:00;;;;;;;49.80;34.33;;;3.70;99.90;;;;;;4979912;28;20179;-47
2023/01/24 10:56:26;;;;;;;50.90;33.95;;;3.70;99.90;;;;;;4974906;28;20195;-44
2023/01/24 10:59:13;;;;;;;45.97;33.87;;;3.70;99.90;;;;;;4966877;28;20203;-44
2023/01/24 11:01:44;;;;;;;48.60;33.33;;;3.60;99.90;;;;;;4977509;28;20257;-45
2023/01/24 11:04:23;;;;;;;44.60;31.60;;;3.60;99.90;;;;;;4979871;28;20591;-45
2023/01/24 11:06:50;;;;;;;46.10;33.05;;;3.70;99.90;;;;;;4979639;28;20181;-45
2023/01/24 11:09:21;;;;;;;50.22;31.80;;;3.70;99.90;;;;;;4965871;28;21006;-44
2023/01/24 11:11:55;;;;;;;47.00;32.08;;;3.70;99.90;;;;;;4979996;28;20649;-47
2023/01/24 11:14:24;;;;;;;43.50;31.45;;;3.80;99.90;;;;;;4979418;28;20213;-43
2023/01/24 11:16:53;;;;;;;47.92;33.33;;;3.80;99.90;;;;;;4979614;28;20650;-45
2023/01/24 11:19:40;;;;;;;43.50;32.03;;;3.80;99.90;;;;;;4979595;28;20182;-49
2023/01/24 11:22:26;;;;;;;50.28;34.30;;;3.80;99.90;;;;;;4979680;28;20594;-45
2023/01/24 11:24:56;;;;;;;46.13;33.05;;;3.90;99.90;;;;;;4978813;28;20208;-45
2023/01/24 11:27:22;;;;;;;46.90;33.55;;;3.80;99.90;;;;;;4977911;28;20231;-50
2023/01/24 11:30:16;;;;;;;45.37;31.20;;;3.80;99.90;;;;;;4969582;28;20647;-45
2023/01/24 11:32:59;;;;;;;48.58;32.90;;;3.70;99.90;;;;;;4979816;28;20195;-46
2023/01/24 11:35:34;;;;;;;48.05;32.47;;;3.70;99.90;;;;;;4981012;28;20213;-46
2023/01/24 11:38:35;;;;;;;50.90;33.58;;;3.70;99.90;;;;;;4971864;28;20185;-44
2023/01/24 11:41:19;;;;;;;45.33;33.30;;;3.70;99.90;;;;;;4983909;28;20241;-45
2023/01/24 11:44:00;;;;;;;46.90;32.83;;;3.70;99.90;;;;;;4983360;28;20269;-47
2023/01/24 11:46:36;;;;;;;46.25;32.40;;;3.60;99.90;;;;;;4983432;28;20722;-44
2023/01/24 11:49:23;;;;;;;47.67;33.00;;;3.80;99.90;;;;;;4971058;28;20219;-47
2023/01/24 11:52:07;;;;;;;44.03;32.13;;;3.80;99.90;;;;;;4983625;28;20208;-46
2023/01/24 11:54:43;;;;;;;43.33;32.85;;;3.70;99.90;;;;;;4983370;28;20245;-47
2023/01/24 11:57:11;;;;;;;44.67;32.05;;;3.70;99.90;;;;;;4983109;28;20176;-44
2023/01/24 12:00:06;;;;;;;50.25;32.80;;;3.70;99.90;;;;;;4983164;28;20261;-45
2023/01/24 12:02:43;;;;;;;52.55;34.50;;;3.70;99.90;;;;;;4983406;28;20180;-47
2023/01/24 12:05:24;;;;;;;44.55;32.00;;;3.70;99.90;;;;;;4977347;28;20324;-43
2023/01/24 12:07:52;;;;;;;47.92;32.97;;;3.70;99.90;;;;;;4979961;28;20656;-45
2023/01/24 12:10:21;;;;;;;44.50;32.25;;;3.80;99.90;;;;;;4983266;28;20185;-47
2023/01/24 12:12:53;;;;;;;46.60;30.90;;;3.70;99.90;;;;;;4976518;28;20191;-44
2023/01/24 12:15:53;;;;;;;47.38;32.95;;;3.60;99.90;;;;;;4983107;28;20232;-46
2023/01/24 12:18:21;;;;;;;49.33;34.70;;;3.70;99.90;;;;;;4983189;28;20230;-45
2023/01/24 12:21:14;;;;;;;48.85;32.65;;;3.70;99.90;;;;;;4976165;28;20259;-48
2023/01/24 12:23:55;;;;;;;42.50;31.25;;;3.60;99.90;;;;;;4965026;28;20178;-46
2023/01/24 12:26:51;;;;;;;45.40;30.55;;;3.60;99.90;;;;;;4982352;28;20525;-46
2023/01/24 12:29:22;;;;;;;43.60;32.08;;;3.60;99.90;;;;;;4967858;28;20200;-46
2023/01/24 12:32:25;;;;;;;45.25;31.20;;;3.50;99.90;;;;;;4982772;28;20186;-45
2023/01/24 12:35:02;;;;;;;45.50;33.92;;;3.50;99.90;;;;;;4982565;28;20212;-46
2023/01/24 12:37:52;;;;;;;42.83;30.60;;;3.50;99.90;;;;;;4978282;28;20233;-44
2023/01/24 12:40:57;;;;;;;42.13;29.40;;;3.50;99.90;;;;;;4982450;28;20450;-46
2023/01/24 12:43:38;;;;;;;43.72;30.60;;;3.60;99.90;;;;;;4976650;28;20206;-46
2023/01/24 12:46:16;;;;;;;44.90;32.08;;;3.50;99.90;;;;;;4969078;28;20243;-44
2023/01/24 12:49:25;;;;;;;44.10;31.42;;;3.60;99.90;;;;;;4973847;28;20190;-49
2023/01/24 12:52:07;;;;;;;44.80;30.10;;;3.60;99.90;;;;;;4960197;28;20276;-43
2023/01/24 12:54:42;;;;;;;50.25;31.52;;;3.60;99.90;;;;;;4971876;28;20231;-48
2023/01/24 12:57:29;;;;;;;43.00;31.25;;;3.60;99.90;;;;;;4978727;28;20223;-52
2023/01/24 12:59:55;;;;;;;43.85;31.33;;;3.60;99.90;;;;;;4980268;28;20203;-49
2023/01/24 13:03:02;;;;;;;52.37;33.63;;;3.70;99.90;;;;;;4981980;28;20191;-43
2023/01/24 13:05:53;;;;;;;48.28;32.00;;;3.60;99.90;;;;;;4940959;28;21137;-44
2023/01/24 13:08:55;;;;;;;50.38;36.20;;;3.60;99.90;;;;;;4974211;28;20252;-45
2023/01/24 13:11:23;;;;;;;45.35;31.77;;;3.70;99.90;;;;;;4971685;28;20686;-46
2023/01/24 13:14:07;;;;;;;42.28;31.00;;;3.70;99.90;;;;;;4977117;28;20183;-45
2023/01/24 13:17:08;;;;;;;42.97;30.13;;;3.70;99.90;;;;;;4966442;28;20195;-44
2023/01/24 13:19:58;;;;;;;44.72;31.00;;;3.80;99.90;;;;;;4913293;28;20210;-44
2023/01/24 13:22:43;;;;;;;40.40;31.80;;;3.70;99.90;;;;;;4969752;28;20554;-44
2023/01/24 13:25:26;;;;;;;39.05;30.20;;;3.80;99.90;;;;;;4981781;28;20195;-45
2023/01/24 13:27:57;;;;;;;47.15;31.10;;;3.80;99.90;;;;;;4973593;28;20212;-46
2023/01/24 13:30:31;;;;;;;48.65;32.67;;;3.70;99.90;;;;;;4976048;28;20248;-44
2023/01/24 13:33:00;;;;;;;41.45;31.20;;;3.80;99.90;;;;;;4970135;28;20589;-46
2023/01/24 13:35:27;;;;;;;42.95;31.63;;;3.70;99.90;;;;;;4981420;28;20210;-45
2023/01/24 13:37:57;;;;;;;38.85;29.95;;;3.70;99.90;;;;;;4974141;28;20781;-46
2023/01/24 13:40:30;;;;;;;41.25;29.98;;;3.70;99.90;;;;;;4977142;28;20253;-45
2023/01/24 13:42:57;;;;;;;40.50;30.55;;;3.70;99.90;;;;;;4981356;28;20183;-48